createdAt,value
2018-03-29T00:02:14.674Z,2.74
2018-03-29T00:04:43.365Z,2.73
2018-03-29T00:07:12.255Z,2.86
2018-03-29T00:09:40.775Z,2.82
2018-03-29T00:12:09.297Z,2.88
2018-03-29T00:14:37.876Z,2.73
2018-03-29T00:17:06.421Z,2.89
2018-03-29T00:19:35.061Z,2.93
2018-03-29T00:22:03.780Z,2.84
2018-03-29T00:24:32.356Z,2.86
2018-03-29T00:27:01.003Z,2.95
2018-03-29T00:29:29.488Z,2.87
2018-03-29T00:31:58.011Z,2.89
2018-03-29T00:34:26.544Z,2.98
2018-03-29T00:36:55.258Z,3.03
2018-03-29T00:39:23.896Z,2.97
2018-03-29T00:41:52.420Z,2.97
2018-03-29T00:44:21.069Z,2.95
2018-03-29T00:46:49.584Z,3.21
2018-03-29T00:49:18.048Z,3.02
2018-03-29T00:51:46.563Z,3.04
2018-03-29T00:54:15.028Z,3.07
2018-03-29T00:56:43.524Z,3.18
2018-03-29T00:59:12.042Z,3.18
2018-03-29T01:01:40.602Z,3.30
2018-03-29T01:04:09.291Z,3.19
2018-03-29T01:06:37.990Z,3.06
2018-03-29T01:09:06.800Z,2.99
2018-03-29T01:11:35.320Z,2.94
2018-03-29T01:14:03.944Z,3.15
2018-03-29T01:16:32.706Z,3.26
2018-03-29T01:19:01.200Z,3.28
2018-03-29T01:21:29.724Z,3.25
2018-03-29T01:23:58.223Z,3.34
2018-03-29T01:26:26.712Z,3.44
2018-03-29T01:28:55.245Z,3.26
2018-03-29T01:31:23.777Z,3.37
2018-03-29T01:33:52.440Z,3.42
2018-03-29T01:36:20.952Z,3.38
2018-03-29T01:38:49.437Z,3.26
2018-03-29T01:41:18.110Z,3.38
2018-03-29T01:43:46.645Z,3.51
2018-03-29T01:46:15.284Z,3.54
2018-03-29T01:48:43.763Z,3.47
2018-03-29T01:51:12.470Z,3.49
2018-03-29T01:53:41.112Z,3.60
2018-03-29T01:56:09.600Z,3.65
2018-03-29T01:58:38.276Z,3.67
2018-03-29T02:01:07.208Z,3.68
2018-03-29T02:03:35.672Z,3.59
2018-03-29T02:06:04.368Z,3.67
2018-03-29T02:08:32.844Z,3.52
2018-03-29T02:11:01.359Z,3.61
2018-03-29T02:13:29.985Z,3.89
2018-03-29T02:15:58.703Z,3.69
2018-03-29T02:18:27.223Z,3.90
2018-03-29T02:20:55.744Z,3.77
2018-03-29T02:23:24.326Z,3.79
2018-03-29T02:25:52.855Z,3.77
2018-03-29T02:28:21.483Z,3.91
2018-03-29T02:30:50.182Z,4.19
2018-03-29T02:33:18.824Z,4.30
2018-03-29T02:35:47.344Z,4.42
2018-03-29T02:38:15.884Z,4.35
2018-03-29T02:40:44.364Z,4.39
2018-03-29T02:43:13.046Z,4.37
2018-03-29T02:45:42.596Z,4.48
2018-03-29T02:48:11.082Z,4.52
2018-03-29T02:50:39.673Z,4.52
2018-03-29T02:53:08.317Z,4.61
2018-03-29T02:55:36.805Z,4.58
2018-03-29T02:58:05.494Z,4.68
2018-03-29T03:00:34.027Z,4.69
2018-03-29T03:03:02.912Z,4.71
2018-03-29T03:05:31.579Z,4.70
2018-03-29T03:08:00.219Z,4.79
2018-03-29T03:10:28.710Z,4.93
2018-03-29T03:12:57.389Z,4.95
2018-03-29T03:15:25.900Z,5.00
2018-03-29T03:17:54.385Z,5.13
2018-03-29T03:20:22.922Z,5.20
2018-03-29T03:22:51.397Z,5.23
2018-03-29T03:25:20.051Z,5.28
2018-03-29T03:27:48.532Z,5.36
2018-03-29T03:30:17.209Z,5.46
2018-03-29T03:32:45.712Z,5.49
2018-03-29T03:35:14.259Z,5.50
2018-03-29T03:37:42.840Z,5.50
2018-03-29T03:40:11.337Z,5.50
2018-03-29T03:42:40.004Z,5.50
2018-03-29T03:45:08.718Z,5.50
2018-03-29T03:47:37.584Z,5.44
2018-03-29T03:50:06.344Z,5.41
2018-03-29T03:52:34.812Z,5.50
2018-03-29T03:55:03.444Z,5.44
2018-03-29T03:57:32.108Z,5.38
2018-03-29T04:00:00.781Z,5.43
2018-03-29T04:03:28.666Z,5.32
2018-03-29T04:05:57.733Z,5.33
2018-03-29T04:08:25.988Z,5.30
2018-03-29T04:10:54.873Z,5.26
2018-03-29T04:13:23.328Z,5.24
2018-03-29T04:15:52.081Z,5.28
2018-03-29T04:18:20.913Z,5.32
2018-03-29T04:20:49.510Z,5.27
2018-03-29T04:23:18.316Z,5.24
2018-03-29T04:25:46.624Z,5.23
2018-03-29T04:28:14.912Z,5.31
2018-03-29T04:30:43.324Z,5.22
2018-03-29T04:33:12.109Z,5.19
2018-03-29T04:35:40.712Z,5.19
2018-03-29T04:38:09.200Z,5.16
2018-03-29T04:40:37.640Z,5.06
2018-03-29T04:43:06.151Z,5.18
2018-03-29T04:45:34.640Z,5.06
2018-03-29T04:48:03.120Z,5.13
2018-03-29T04:50:31.818Z,5.08
2018-03-29T04:53:00.470Z,4.98
2018-03-29T04:55:29.184Z,4.98
2018-03-29T04:57:57.579Z,4.97
2018-03-29T05:00:26.307Z,4.88
2018-03-29T05:02:56.378Z,4.83
2018-03-29T05:05:25.163Z,4.90
2018-03-29T05:07:53.986Z,4.86
2018-03-29T05:10:22.498Z,4.89
2018-03-29T05:12:50.974Z,4.87
2018-03-29T05:15:19.292Z,4.82
2018-03-29T05:17:47.638Z,4.90
2018-03-29T05:20:16.116Z,4.77
2018-03-29T05:22:44.873Z,4.82
2018-03-29T05:25:15.510Z,4.78
2018-03-29T05:27:48.244Z,4.68
2018-03-29T05:30:17.480Z,4.72
2018-03-29T05:32:46.224Z,4.89
2018-03-29T05:35:15.131Z,4.77
2018-03-29T05:37:43.946Z,4.77
2018-03-29T05:40:13.859Z,4.72
2018-03-29T05:42:42.813Z,4.72
2018-03-29T05:45:11.779Z,4.75
2018-03-29T05:47:40.730Z,4.72
2018-03-29T05:50:09.154Z,4.71
2018-03-29T05:52:37.581Z,4.78
2018-03-29T05:55:06.408Z,4.67
2018-03-29T05:57:35.577Z,4.77
2018-03-29T06:00:06.833Z,4.78
2018-03-29T06:02:35.520Z,4.75
2018-03-29T06:05:04.725Z,4.81
2018-03-29T06:07:33.513Z,4.79
2018-03-29T06:10:02.188Z,4.75
2018-03-29T06:12:30.955Z,4.82
2018-03-29T06:15:04.310Z,4.87
2018-03-29T06:17:32.879Z,4.94
2018-03-29T06:20:01.862Z,4.85
2018-03-29T06:22:31.253Z,4.91
2018-03-29T06:24:59.982Z,4.89
2018-03-29T06:27:28.460Z,4.91
2018-03-29T06:29:58.839Z,4.92
2018-03-29T06:32:28.424Z,5.00
2018-03-29T06:34:57.132Z,4.95
2018-03-29T06:37:26.965Z,4.95
2018-03-29T06:39:56.263Z,4.92
2018-03-29T06:42:25.418Z,5.06
2018-03-29T06:44:56.610Z,4.97
2018-03-29T06:47:25.132Z,4.99
2018-03-29T06:49:53.727Z,4.97
2018-03-29T06:52:22.113Z,5.06
2018-03-29T06:54:51.563Z,5.03
2018-03-29T06:57:20.459Z,5.12
2018-03-29T06:59:49.103Z,5.08
2018-03-29T07:02:19.066Z,5.10
2018-03-29T07:04:48.080Z,5.17
2018-03-29T07:07:17.568Z,5.19
2018-03-29T07:09:46.921Z,5.22
2018-03-29T07:12:16.112Z,5.23
2018-03-29T07:14:44.592Z,5.36
2018-03-29T07:17:13.057Z,5.36
2018-03-29T07:19:42.216Z,5.37
2018-03-29T07:22:11.720Z,5.43
2018-03-29T07:24:41.081Z,5.44
2018-03-29T07:27:10.586Z,5.40
2018-03-29T07:29:39.543Z,5.45
2018-03-29T07:32:08.552Z,5.55
2018-03-29T07:34:38.035Z,5.52
2018-03-29T07:37:07.620Z,5.59
2018-03-29T07:39:35.918Z,5.79
2018-03-29T07:42:04.436Z,5.74
2018-03-29T07:44:33.255Z,5.82
2018-03-29T07:47:02.215Z,5.87
2018-03-29T07:49:30.932Z,5.91
2018-03-29T07:52:00.308Z,6.00
2018-03-29T07:54:28.692Z,5.96
2018-03-29T07:56:57.009Z,6.03
2018-03-29T07:59:25.528Z,6.14
2018-03-29T08:01:54.417Z,5.99
2018-03-29T08:04:22.979Z,6.06
2018-03-29T08:06:51.410Z,5.90
2018-03-29T08:09:20.063Z,5.89
2018-03-29T08:11:48.505Z,5.81
2018-03-29T08:14:16.803Z,5.91
2018-03-29T08:16:45.657Z,5.90
2018-03-29T08:19:14.291Z,5.89
2018-03-29T08:21:42.829Z,5.87
2018-03-29T08:24:11.239Z,5.90
2018-03-29T08:26:39.905Z,5.94
2018-03-29T08:29:08.581Z,5.93
2018-03-29T08:31:37.025Z,6.06
2018-03-29T08:34:05.284Z,6.01
2018-03-29T08:36:34.096Z,6.10
2018-03-29T08:39:03.025Z,6.15
2018-03-29T08:41:31.480Z,6.00
2018-03-29T08:43:59.794Z,6.04
2018-03-29T08:46:28.593Z,6.07
2018-03-29T08:48:57.377Z,6.05
2018-03-29T08:51:25.770Z,6.12
2018-03-29T08:53:54.079Z,6.18
2018-03-29T08:56:24.051Z,6.08
2018-03-29T08:58:52.612Z,6.04
2018-03-29T09:01:21.577Z,6.14
2018-03-29T09:03:50.228Z,6.27
2018-03-29T09:06:18.980Z,6.32
2018-03-29T09:08:47.696Z,6.30
2018-03-29T09:11:16.309Z,6.61
2018-03-29T09:13:45.105Z,6.95
2018-03-29T09:16:13.692Z,7.33
2018-03-29T09:18:42.404Z,7.32
2018-03-29T09:21:11.179Z,7.42
2018-03-29T09:23:39.829Z,7.35
2018-03-29T09:26:08.361Z,7.32
2018-03-29T09:28:36.737Z,7.12
2018-03-29T09:31:05.180Z,6.65
2018-03-29T09:33:34.027Z,7.10
2018-03-29T09:36:02.680Z,6.97
2018-03-29T09:38:31.172Z,6.90
2018-03-29T09:40:59.427Z,7.31
2018-03-29T09:43:28.304Z,7.14
2018-03-29T09:45:56.918Z,6.95
2018-03-29T09:48:25.332Z,6.83
2018-03-29T09:50:53.800Z,7.42
2018-03-29T09:53:22.415Z,7.54
2018-03-29T09:55:51.133Z,7.74
2018-03-29T09:58:19.840Z,7.91
2018-03-29T10:00:48.617Z,7.76
2018-03-29T10:03:21.532Z,8.02
2018-03-29T10:05:50.063Z,8.27
2018-03-29T10:08:18.507Z,8.69
2018-03-29T10:10:46.948Z,8.22
2018-03-29T10:13:15.377Z,7.82
2018-03-29T10:15:43.956Z,7.54
2018-03-29T10:18:12.403Z,7.42
2018-03-29T10:20:40.913Z,7.60
2018-03-29T10:23:09.356Z,7.92
2018-03-29T10:25:38.021Z,8.18
2018-03-29T10:28:06.555Z,8.56
2018-03-29T10:30:35.362Z,8.30
2018-03-29T10:33:04.184Z,8.25
2018-03-29T10:35:33.004Z,8.13
2018-03-29T10:38:01.364Z,7.77
2018-03-29T10:40:29.984Z,8.22
2018-03-29T10:42:58.353Z,8.61
2018-03-29T10:45:27.184Z,8.60
2018-03-29T10:47:56.008Z,8.25
2018-03-29T10:50:24.951Z,8.00
2018-03-29T10:52:53.238Z,7.96
2018-03-29T10:55:22.109Z,7.92
2018-03-29T10:57:50.829Z,8.36
2018-03-29T11:00:19.579Z,9.11
2018-03-29T11:02:48.360Z,9.63
2018-03-29T11:05:17.082Z,9.67
2018-03-29T11:07:45.728Z,9.49
2018-03-29T11:10:14.106Z,9.90
2018-03-29T11:12:42.618Z,9.01
2018-03-29T11:15:11.238Z,9.11
2018-03-29T11:17:39.576Z,8.72
2018-03-29T11:20:08.151Z,8.40
2018-03-29T11:22:36.795Z,8.29
2018-03-29T11:25:05.278Z,8.04
2018-03-29T11:27:33.649Z,7.92
2018-03-29T11:30:02.405Z,8.13
2018-03-29T11:32:30.899Z,8.15
2018-03-29T11:34:59.620Z,8.28
2018-03-29T11:37:28.556Z,8.22
2018-03-29T11:39:57.108Z,8.16
2018-03-29T11:42:25.568Z,7.94
2018-03-29T11:44:54.247Z,8.15
2018-03-29T11:47:22.711Z,8.08
2018-03-29T11:49:51.132Z,8.40
2018-03-29T11:52:19.776Z,8.56
2018-03-29T11:54:48.290Z,8.33
2018-03-29T11:57:17.228Z,8.40
2018-03-29T11:59:45.726Z,8.20
2018-03-29T12:02:14.589Z,8.57
2018-03-29T12:04:43.018Z,8.54
2018-03-29T12:07:11.645Z,8.63
2018-03-29T12:09:39.998Z,8.65
2018-03-29T12:12:08.910Z,8.69
2018-03-29T12:14:37.520Z,8.79
2018-03-29T12:17:05.864Z,9.00
2018-03-29T12:19:34.425Z,8.46
2018-03-29T12:22:03.196Z,8.43
2018-03-29T12:24:31.647Z,8.56
2018-03-29T12:27:00.124Z,8.53
2018-03-29T12:29:28.838Z,8.50
2018-03-29T12:31:57.573Z,8.67
2018-03-29T12:34:26.175Z,8.56
2018-03-29T12:36:54.587Z,8.42
2018-03-29T12:39:23.575Z,8.38
2018-03-29T12:41:52.545Z,8.40
2018-03-29T12:44:20.917Z,8.30
2018-03-29T12:46:49.553Z,8.63
2018-03-29T12:49:18.176Z,8.57
2018-03-29T12:51:46.839Z,8.40
2018-03-29T12:54:15.673Z,8.85
2018-03-29T12:56:53.099Z,8.76
2018-03-29T12:59:21.653Z,8.51
2018-03-29T13:01:50.204Z,8.50
2018-03-29T13:04:19.023Z,9.09
2018-03-29T13:06:47.769Z,8.57
2018-03-29T13:09:16.427Z,8.17
2018-03-29T13:11:45.353Z,8.28
2018-03-29T13:14:14.264Z,7.99
2018-03-29T13:16:42.696Z,8.02
2018-03-29T13:19:11.437Z,7.98
2018-03-29T13:21:39.825Z,8.28
2018-03-29T13:24:08.369Z,8.71
2018-03-29T13:26:37.012Z,8.87
2018-03-29T13:29:05.498Z,8.74
2018-03-29T13:31:33.920Z,8.62
2018-03-29T13:34:02.432Z,8.57
2018-03-29T13:36:30.802Z,8.24
2018-03-29T13:38:59.231Z,8.19
2018-03-29T13:41:27.681Z,8.24
2018-03-29T13:43:56.188Z,8.27
2018-03-29T13:46:24.702Z,8.15
2018-03-29T13:48:53.377Z,8.18
2018-03-29T13:51:21.998Z,8.25
2018-03-29T13:53:50.812Z,8.18
2018-03-29T13:56:19.668Z,8.33
2018-03-29T13:58:48.100Z,8.55
2018-03-29T14:01:16.562Z,8.48
2018-03-29T14:03:45.337Z,8.77
2018-03-29T14:06:13.779Z,8.84
2018-03-29T14:08:42.469Z,8.50
2018-03-29T14:11:10.927Z,8.51
2018-03-29T14:13:39.850Z,8.83
2018-03-29T14:16:08.480Z,8.90
2018-03-29T14:18:36.872Z,8.97
2018-03-29T14:21:05.475Z,8.53
2018-03-29T14:23:34.404Z,8.55
2018-03-29T14:26:02.674Z,8.63
2018-03-29T14:28:31.430Z,8.98
2018-03-29T14:31:00.532Z,8.91
2018-03-29T14:33:29.032Z,8.89
2018-03-29T14:35:57.759Z,8.82
2018-03-29T14:38:26.405Z,8.89
2018-03-29T14:40:54.967Z,9.32
2018-03-29T14:43:24.013Z,9.68
2018-03-29T14:45:52.536Z,9.54
2018-03-29T14:48:21.253Z,9.38
2018-03-29T14:50:50.081Z,9.09
2018-03-29T14:53:18.773Z,8.78
2018-03-29T14:55:47.353Z,8.74
2018-03-29T14:58:15.744Z,8.60
2018-03-29T15:00:44.158Z,8.48
2018-03-29T15:03:14.848Z,8.39
2018-03-29T15:05:43.569Z,8.47
2018-03-29T15:08:12.417Z,8.58
2018-03-29T15:10:40.928Z,8.59
2018-03-29T15:13:09.485Z,8.72
2018-03-29T15:15:38.211Z,8.72
2018-03-29T15:18:07.045Z,8.74
2018-03-29T15:20:35.353Z,8.55
2018-03-29T15:23:04.497Z,8.50
2018-03-29T15:25:33.667Z,8.54
2018-03-29T15:28:02.326Z,8.41
2018-03-29T15:30:30.671Z,8.77
2018-03-29T15:32:59.406Z,8.92
2018-03-29T15:35:27.988Z,8.74
2018-03-29T15:37:56.679Z,8.70
2018-03-29T15:40:25.240Z,8.58
2018-03-29T15:42:53.683Z,8.49
2018-03-29T15:45:22.432Z,8.34
2018-03-29T15:47:50.847Z,8.41
2018-03-29T15:50:19.467Z,8.36
2018-03-29T15:52:47.836Z,8.42
2018-03-29T15:55:16.768Z,8.61
2018-03-29T15:57:45.111Z,8.84
2018-03-29T16:00:13.531Z,8.84
2018-03-29T16:02:42.184Z,8.67
2018-03-29T16:05:10.619Z,8.66
2018-03-29T16:07:39.097Z,8.78
2018-03-29T16:10:08.024Z,8.75
2018-03-29T16:12:36.778Z,8.82
2018-03-29T16:15:05.184Z,8.72
2018-03-29T16:17:33.543Z,8.56
2018-03-29T16:20:02.149Z,8.47
2018-03-29T16:22:30.908Z,8.41
2018-03-29T16:24:59.268Z,8.43
2018-03-29T16:27:28.255Z,8.32
2018-03-29T16:29:56.627Z,8.28
2018-03-29T16:32:25.002Z,8.31
2018-03-29T16:34:53.422Z,8.45
2018-03-29T16:37:21.949Z,8.36
2018-03-29T16:39:50.527Z,8.40
2018-03-29T16:42:19.021Z,8.39
2018-03-29T16:44:47.351Z,8.33
2018-03-29T16:47:16.160Z,8.27
2018-03-29T16:49:44.945Z,8.25
2018-03-29T16:52:13.889Z,8.09
2018-03-29T16:54:42.535Z,8.16
2018-03-29T16:57:11.006Z,8.10
2018-03-29T16:59:39.472Z,8.16
2018-03-29T17:02:08.206Z,8.12
2018-03-29T17:04:36.819Z,8.04
2018-03-29T17:07:05.316Z,7.97
2018-03-29T17:09:33.984Z,7.99
2018-03-29T17:12:02.509Z,7.98
2018-03-29T17:14:31.011Z,7.92
2018-03-29T17:16:59.700Z,7.93
2018-03-29T17:19:28.184Z,7.95
2018-03-29T17:21:56.832Z,7.63
2018-03-29T17:24:25.248Z,7.11
2018-03-29T17:26:53.790Z,7.05
2018-03-29T17:29:22.179Z,6.70
2018-03-29T17:31:51.024Z,6.48
2018-03-29T17:34:20.095Z,6.27
2018-03-29T17:36:48.635Z,6.10
2018-03-29T17:39:16.955Z,6.07
2018-03-29T17:41:45.526Z,6.03
2018-03-29T17:44:14.084Z,6.18
2018-03-29T17:46:42.746Z,6.15
2018-03-29T17:49:11.257Z,6.17
2018-03-29T17:51:40.008Z,6.11
2018-03-29T17:54:08.840Z,6.19
2018-03-29T17:56:37.732Z,6.21
2018-03-29T17:59:06.153Z,6.14
2018-03-29T18:01:34.734Z,6.21
2018-03-29T18:04:03.116Z,6.27
2018-03-29T18:06:32.000Z,5.98
2018-03-29T18:09:00.621Z,6.03
2018-03-29T18:11:28.904Z,6.06
2018-03-29T18:13:57.733Z,6.07
2018-03-29T18:16:26.725Z,5.92
2018-03-29T18:18:55.252Z,6.06
2018-03-29T18:21:24.049Z,6.09
2018-03-29T18:23:52.685Z,5.91
2018-03-29T18:26:21.653Z,5.78
2018-03-29T18:28:50.233Z,5.84
2018-03-29T18:31:20.942Z,5.72
2018-03-29T18:33:49.592Z,5.85
2018-03-29T18:36:18.379Z,5.46
2018-03-29T18:38:47.184Z,5.58
2018-03-29T18:41:16.341Z,5.49
2018-03-29T18:43:44.772Z,5.43
2018-03-29T18:46:13.651Z,5.28
2018-03-29T18:48:44.441Z,5.24
2018-03-29T18:51:17.152Z,5.33
2018-03-29T18:53:47.943Z,5.33
2018-03-29T18:56:18.383Z,5.30
2018-03-29T18:58:46.870Z,5.30
2018-03-29T19:01:15.647Z,5.24
2018-03-29T19:03:45.716Z,5.43
2018-03-29T19:06:14.432Z,5.33
2018-03-29T19:08:43.663Z,5.32
2018-03-29T19:11:12.391Z,5.21
2018-03-29T19:13:41.177Z,5.09
2018-03-29T19:16:09.856Z,5.02
2018-03-29T19:18:38.389Z,4.93
2018-03-29T19:21:07.308Z,4.89
2018-03-29T19:23:35.749Z,4.97
2018-03-29T19:26:04.732Z,5.01
2018-03-29T19:28:33.138Z,5.04
2018-03-29T19:31:01.924Z,5.03
2018-03-29T19:33:30.536Z,4.94
2018-03-29T19:35:58.992Z,4.86
2018-03-29T19:38:27.455Z,4.86
2018-03-29T19:40:56.152Z,4.81
2018-03-29T19:43:24.797Z,4.81
2018-03-29T19:45:53.351Z,4.63
2018-03-29T19:48:21.920Z,4.59
2018-03-29T19:50:50.507Z,4.53
2018-03-29T19:53:19.226Z,4.35
2018-03-29T19:55:47.868Z,4.22
2018-03-29T19:58:16.253Z,4.13
2018-03-29T20:00:45.054Z,3.99
2018-03-29T20:03:14.238Z,3.88
2018-03-29T20:05:43.426Z,3.97
2018-03-29T20:08:11.945Z,4.05
2018-03-29T20:10:40.391Z,3.82
2018-03-29T20:13:09.013Z,3.89
2018-03-29T20:15:37.524Z,3.78
2018-03-29T20:18:07.304Z,3.66
2018-03-29T20:20:37.550Z,3.76
2018-03-29T20:23:06.162Z,3.68
2018-03-29T20:25:35.403Z,3.72
2018-03-29T20:28:03.991Z,3.92
2018-03-29T20:30:32.810Z,4.01
2018-03-29T20:33:01.895Z,4.10
2018-03-29T20:35:31.171Z,4.06
2018-03-29T20:37:59.837Z,3.96
2018-03-29T20:40:28.783Z,3.67
2018-03-29T20:42:57.557Z,3.70
2018-03-29T20:45:25.870Z,3.51
2018-03-29T20:47:54.481Z,3.64
2018-03-29T20:50:23.644Z,3.74
2018-03-29T20:52:52.092Z,3.68
2018-03-29T20:55:20.576Z,3.83
2018-03-29T20:57:49.124Z,3.62
2018-03-29T21:00:17.582Z,3.49
2018-03-29T21:02:46.072Z,3.55
2018-03-29T21:05:14.533Z,3.77
2018-03-29T21:07:43.125Z,3.89
2018-03-29T21:10:11.784Z,3.88
2018-03-29T21:12:40.159Z,3.81
2018-03-29T21:15:08.689Z,3.88
2018-03-29T21:17:37.074Z,3.92
2018-03-29T21:20:05.600Z,3.99
2018-03-29T21:22:34.281Z,4.17
2018-03-29T21:25:02.768Z,4.36
2018-03-29T21:27:31.145Z,4.28
2018-03-29T21:29:59.554Z,4.00
2018-03-29T21:32:28.020Z,3.96
2018-03-29T21:34:56.377Z,3.85
2018-03-29T21:37:25.984Z,3.83
2018-03-29T21:39:54.462Z,3.76
2018-03-29T21:42:22.938Z,3.73
2018-03-29T21:44:51.472Z,3.63
2018-03-29T21:47:19.904Z,3.42
2018-03-29T21:49:48.641Z,3.30
2018-03-29T21:52:17.514Z,3.39
2018-03-29T21:54:46.299Z,3.39
2018-03-29T21:57:15.139Z,3.37
2018-03-29T21:59:43.933Z,3.21
2018-03-29T22:02:12.660Z,3.29
2018-03-29T22:04:41.303Z,3.45
2018-03-29T22:07:10.113Z,3.36
2018-03-29T22:09:38.476Z,3.04
2018-03-29T22:12:07.033Z,2.97
2018-03-29T22:14:36.086Z,2.86
2018-03-29T22:17:04.833Z,2.80
2018-03-29T22:19:33.720Z,2.59
2018-03-29T22:22:02.005Z,2.62
2018-03-29T22:24:30.825Z,2.60
2018-03-29T22:26:59.401Z,2.57
2018-03-29T22:29:27.852Z,2.59
2018-03-29T22:31:56.155Z,2.79
2018-03-29T22:34:24.489Z,2.86
2018-03-29T22:36:53.028Z,2.82
2018-03-29T22:39:21.332Z,2.56
2018-03-29T22:41:50.203Z,2.74
2018-03-29T22:44:18.639Z,2.74
2018-03-29T22:46:47.281Z,2.75
2018-03-29T22:49:15.594Z,2.73
2018-03-29T22:51:44.170Z,2.71
2018-03-29T22:54:13.039Z,2.71
2018-03-29T22:56:41.418Z,2.58
2018-03-29T22:59:10.457Z,2.43
2018-03-29T23:01:39.292Z,2.44
2018-03-29T23:04:08.149Z,2.41
2018-03-29T23:06:37.088Z,2.27
2018-03-29T23:09:06.141Z,2.26
2018-03-29T23:11:34.534Z,2.20
2018-03-29T23:14:02.969Z,1.93
2018-03-29T23:16:31.996Z,1.92
2018-03-29T23:19:00.665Z,1.79
2018-03-29T23:21:29.008Z,1.97
2018-03-29T23:23:57.468Z,1.98
2018-03-29T23:26:25.865Z,1.95
2018-03-29T23:28:54.524Z,1.56
2018-03-29T23:31:22.915Z,1.47
2018-03-29T23:33:51.340Z,1.43
2018-03-29T23:36:20.109Z,1.56
2018-03-29T23:38:49.182Z,1.54
2018-03-29T23:41:17.990Z,1.64
2018-03-29T23:43:46.935Z,1.66
2018-03-29T23:46:15.629Z,1.93
2018-03-29T23:48:44.534Z,2.11
2018-03-29T23:51:13.270Z,2.17
2018-03-29T23:53:41.650Z,2.15
2018-03-29T23:56:10.177Z,2.01
2018-03-29T23:58:38.824Z,1.94
